Time;durP1;ratioP1;P1;durP2;ratioP2;P2;SDS_P1;SDS_P2;PMS_P1;PMS_P2;Temp;Humidity;BMP_temperature;BMP_pressure;BME280_temperature;BME280_humidity;BME280_pressure;Samples;Min_cycle;Max_cycle;Signal;HPM_P1;HPM_P2
2022/01/02 00:03:33;;;;;;;27.02;12.07;;;;;;;7.28;100.00;100391.22;8256336;28;20811;-79
2022/01/02 00:07:41;;;;;;;31.13;12.18;;;;;;;7.30;100.00;100383.63;8264101;28;20487;-79
2022/01/02 00:11:42;;;;;;;23.33;11.80;;;;;;;7.30;100.00;100374.56;8258386;28;20053;-80
2022/01/02 00:15:45;;;;;;;21.63;10.98;;;;;;;7.28;100.00;100371.19;8267056;28;20116;-80
2022/01/02 00:19:52;;;;;;;33.47;16.77;;;;;;;7.27;100.00;100369.53;8261045;28;20092;-81
2022/01/02 00:24:00;;;;;;;22.42;11.38;;;;;;;7.25;100.00;100349.69;8265306;28;20483;-80
2022/01/02 00:28:02;;;;;;;25.55;10.65;;;;;;;7.19;100.00;100334.94;8256213;28;20130;-80
2022/01/02 00:32:14;;;;;;;19.48;9.90;;;;;;;7.16;100.00;100318.94;8251785;28;20423;-80
2022/01/02 00:36:15;;;;;;;25.23;11.63;;;;;;;7.13;100.00;100313.03;8270174;28;20042;-80
2022/01/02 00:40:17;;;;;;;25.33;11.73;;;;;;;7.15;100.00;100308.19;8277693;28;20043;-81
2022/01/02 00:44:44;;;;;;;24.08;12.25;;;;;;;7.17;100.00;100331.59;8253506;28;20077;-80
2022/01/02 00:48:47;;;;;;;27.05;12.90;;;;;;;7.14;100.00;100323.81;8259772;28;20129;-80
2022/01/02 00:52:50;;;;;;;24.80;11.30;;;;;;;7.03;100.00;100314.34;8257286;28;20046;-80
2022/01/02 00:56:52;;;;;;;20.77;10.05;;;;;;;6.98;100.00;100316.88;8253066;28;20053;-80
2022/01/02 01:01:01;;;;;;;23.42;10.25;;;;;;;6.92;100.00;100311.41;8252791;28;20133;-80
2022/01/02 01:05:06;;;;;;;21.13;10.00;;;;;;;6.88;100.00;100329.34;8263388;28;20565;-80
2022/01/02 01:09:08;;;;;;;20.38;9.40;;;;;;;6.79;100.00;100329.56;8262154;28;20415;-80
2022/01/02 01:13:10;;;;;;;19.75;9.82;;;;;;;6.73;100.00;100332.31;8258120;28;20479;-79
2022/01/02 01:17:14;;;;;;;20.63;10.57;;;;;;;6.68;100.00;100327.44;8251855;28;20073;-80
2022/01/02 01:21:16;;;;;;;26.38;11.68;;;;;;;6.67;100.00;100327.69;8252124;28;20046;-79
2022/01/02 01:25:20;;;;;;;22.20;10.20;;;;;;;6.69;100.00;100340.06;8269806;28;20051;-79
2022/01/02 01:29:21;;;;;;;27.52;11.25;;;;;;;6.63;100.00;100340.91;8255331;28;20139;-81
2022/01/02 01:33:23;;;;;;;22.65;10.88;;;;;;;6.59;100.00;100325.97;8235484;28;20043;-81
2022/01/02 01:37:25;;;;;;;23.48;10.52;;;;;;;6.55;100.00;100330.22;8255605;28;20089;-80
2022/01/02 01:41:36;;;;;;;28.00;14.18;;;;;;;6.50;100.00;100314.41;8257809;28;20042;-81
2022/01/02 01:45:38;;;;;;;23.92;11.75;;;;;;;6.47;100.00;100322.19;8232938;28;20042;-80
2022/01/02 01:49:41;;;;;;;30.77;12.02;;;;;;;6.43;100.00;100318.22;8259491;28;20049;-80
2022/01/02 01:53:42;;;;;;;24.08;11.82;;;;;;;6.36;100.00;100302.59;8253314;28;20109;-80
2022/01/02 01:57:44;;;;;;;27.40;12.45;;;;;;;6.31;100.00;100283.25;8252549;28;20495;-81
2022/01/02 02:01:48;;;;;;;30.13;13.70;;;;;;;6.28;100.00;100280.94;8267611;28;20423;-81
2022/01/02 02:05:51;;;;;;;28.73;13.60;;;;;;;6.25;100.00;100273.13;8263629;28;20099;-80
2022/01/02 02:10:38;;;;;;;28.90;12.93;;;;;;;6.25;100.00;100272.31;8260830;28;20046;-80
2022/01/02 02:14:18;;;;;;;34.70;13.55;;;;;;;6.24;100.00;100265.13;8256810;28;20046;-79
2022/01/02 02:18:20;;;;;;;29.42;13.80;;;;;;;6.23;100.00;100271.66;8259195;28;20408;-79
2022/01/02 02:22:24;;;;;;;29.23;13.30;;;;;;;6.22;100.00;100257.16;8255654;28;20046;-79
2022/01/02 02:26:26;;;;;;;35.60;13.95;;;;;;;6.22;100.00;100256.31;8271139;28;20050;-80
2022/01/02 02:30:30;;;;;;;32.95;13.93;;;;;;;6.23;100.00;100258.81;8265046;28;20057;-79
2022/01/02 02:34:33;;;;;;;31.65;14.40;;;;;;;6.24;100.00;100235.84;8260506;28;20042;-80
2022/01/02 02:38:38;;;;;;;34.97;14.43;;;;;;;6.26;100.00;100232.94;8264299;28;20050;-80
2022/01/02 02:42:52;;;;;;;37.33;14.82;;;;;;;6.26;100.00;100222.81;8264380;28;20116;-79
2022/01/02 02:51:31;;;;;;;43.47;16.38;;;;;;;6.36;100.00;100216.91;8262949;28;20397;-79
2022/01/02 02:55:42;;;;;;;37.88;15.32;;;;;;;6.42;100.00;100210.56;8257923;28;20085;-80
2022/01/02 02:59:44;;;;;;;38.50;15.50;;;;;;;6.49;100.00;100207.84;8255355;28;21790;-79
2022/01/02 03:03:47;;;;;;;41.97;16.35;;;;;;;6.52;100.00;100193.72;8253375;28;20046;-79
2022/01/02 03:07:48;;;;;;;44.00;16.27;;;;;;;6.58;100.00;100190.13;8266103;28;20070;-80
2022/01/02 03:11:50;;;;;;;36.80;14.13;;;;;;;6.66;100.00;100186.31;8267747;28;20080;-79
2022/01/02 03:15:53;;;;;;;37.88;14.40;;;;;;;6.73;100.00;100184.41;8238720;28;20043;-79
2022/01/02 03:19:54;;;;;;;33.08;14.00;;;;;;;6.82;100.00;100191.31;8261831;28;20100;-80
2022/01/02 03:23:56;;;;;;;32.90;13.55;;;;;;;6.92;100.00;100188.97;8267794;28;20050;-80
2022/01/02 03:27:58;;;;;;;36.95;14.07;;;;;;;7.04;100.00;100205.56;8260434;28;20047;-80
2022/01/02 03:31:59;;;;;;;27.67;13.68;;;;;;;7.21;100.00;100211.41;8257484;28;20741;-80
2022/01/02 03:36:02;;;;;;;23.75;12.38;;;;;;;7.41;100.00;100205.81;8262296;28;20507;-79
2022/01/02 03:40:11;;;;;;;23.30;11.60;;;;;;;7.52;100.00;100202.38;8259579;28;20555;-79
2022/01/02 03:44:13;;;;;;;28.20;12.00;;;;;;;7.60;100.00;100193.88;8243796;28;20072;-79
2022/01/02 03:48:14;;;;;;;21.23;10.85;;;;;;;7.72;100.00;100172.91;8260139;28;20050;-79
2022/01/02 03:52:16;;;;;;;22.10;11.10;;;;;;;7.76;100.00;100174.16;8262739;28;20041;-79
2022/01/02 03:56:18;;;;;;;21.52;11.45;;;;;;;7.79;100.00;100150.91;8254944;28;20046;-79
2022/01/02 04:00:20;;;;;;;22.95;10.68;;;;;;;7.87;100.00;100147.06;8253792;28;20057;-80
2022/01/02 04:04:22;;;;;;;21.00;11.35;;;;;;;7.89;100.00;100154.00;8271815;28;20128;-80
2022/01/02 04:08:23;;;;;;;19.33;11.27;;;;;;;7.93;100.00;100162.63;8259028;28;20039;-79
2022/01/02 04:12:26;;;;;;;24.35;11.23;;;;;;;7.93;100.00;100165.34;8258017;28;20050;-79
2022/01/02 04:16:28;;;;;;;23.95;11.38;;;;;;;7.93;100.00;100181.81;8251201;28;20534;-79
2022/01/02 04:20:30;;;;;;;19.13;10.60;;;;;;;7.90;100.00;100176.78;8254771;28;20046;-79
2022/01/02 04:24:32;;;;;;;21.77;10.82;;;;;;;7.89;100.00;100169.63;8257208;28;20053;-79
2022/01/02 04:28:33;;;;;;;20.67;10.52;;;;;;;7.88;100.00;100157.81;8238853;28;20490;-79
2022/01/02 04:32:35;;;;;;;22.92;10.95;;;;;;;7.82;100.00;100136.72;8239936;28;20142;-80
2022/01/02 04:36:38;;;;;;;21.20;10.50;;;;;;;7.80;100.00;100141.63;8255626;28;20114;-79
2022/01/02 04:40:40;;;;;;;18.80;10.88;;;;;;;7.76;100.00;100160.44;8260937;28;20042;-79
2022/01/02 04:44:43;;;;;;;22.65;12.20;;;;;;;7.78;100.00;100159.38;8258570;28;20099;-79
2022/01/02 04:48:47;;;;;;;20.25;11.63;;;;;;;7.78;100.00;100149.22;8259600;28;20446;-80
2022/01/02 04:52:49;;;;;;;22.77;12.30;;;;;;;7.73;100.00;100144.44;8253446;28;20050;-81
2022/01/02 04:56:51;;;;;;;21.60;11.13;;;;;;;7.72;100.00;100126.28;8238565;28;20046;-80
2022/01/02 05:00:52;;;;;;;23.70;12.07;;;;;;;7.75;100.00;100111.28;8252711;28;20053;-80
2022/01/02 05:04:55;;;;;;;18.50;10.80;;;;;;;7.74;100.00;100106.84;8253561;28;20130;-79
2022/01/02 05:08:57;;;;;;;25.58;11.52;;;;;;;7.72;100.00;100098.84;8260811;28;20415;-80
2022/01/02 05:12:59;;;;;;;20.60;10.43;;;;;;;7.73;100.00;100105.16;8260144;28;20506;-80
2022/01/02 05:17:00;;;;;;;22.80;11.25;;;;;;;7.74;100.00;100123.31;8256901;28;20133;-80
2022/01/02 05:21:03;;;;;;;22.50;10.90;;;;;;;7.74;100.00;100126.91;8253634;28;20046;-80
2022/01/02 05:25:05;;;;;;;18.50;10.07;;;;;;;7.74;100.00;100121.41;8246975;28;20500;-80
2022/01/02 05:29:07;;;;;;;21.08;11.07;;;;;;;7.70;100.00;100111.97;8262317;28;20046;-80
2022/01/02 05:33:10;;;;;;;18.58;10.25;;;;;;;7.68;100.00;100127.78;8252802;28;20116;-81
2022/01/02 05:37:13;;;;;;;19.90;10.30;;;;;;;7.68;100.00;100125.06;8261856;28;20050;-80
2022/01/02 05:41:15;;;;;;;18.95;9.73;;;;;;;7.71;100.00;100116.38;8265217;28;20398;-80
2022/01/02 05:45:17;;;;;;;21.70;11.95;;;;;;;7.72;100.00;100109.81;8264253;28;20046;-80
2022/01/02 05:49:19;;;;;;;21.23;10.23;;;;;;;7.78;100.00;100090.78;8261654;28;20136;-80
2022/01/02 05:53:21;;;;;;;19.33;9.97;;;;;;;7.82;100.00;100075.53;8268968;28;20045;-80
2022/01/02 05:57:22;;;;;;;19.67;9.35;;;;;;;7.86;100.00;100082.28;8249949;28;20038;-79
2022/01/02 06:01:24;;;;;;;18.83;10.00;;;;;;;7.87;100.00;100072.97;8264721;28;20661;-80
2022/01/02 06:05:26;;;;;;;14.50;9.32;;;;;;;7.91;100.00;100082.41;8261579;28;20046;-80
2022/01/02 06:09:28;;;;;;;21.13;10.27;;;;;;;7.95;100.00;100097.38;8260250;28;20054;-79
2022/01/02 06:13:30;;;;;;;13.63;8.23;;;;;;;7.98;100.00;100094.19;8270970;28;20412;-79
2022/01/02 06:17:32;;;;;;;17.00;9.38;;;;;;;7.98;100.00;100105.16;8264921;28;20043;-79
2022/01/02 06:21:34;;;;;;;17.35;9.18;;;;;;;7.97;100.00;100089.75;8238395;28;20105;-80
2022/01/02 06:25:36;;;;;;;16.02;8.88;;;;;;;7.97;100.00;100087.88;8255926;28;20137;-80
2022/01/02 06:29:38;;;;;;;14.53;8.53;;;;;;;7.98;100.00;100077.72;8266197;28;20053;-80
2022/01/02 06:33:40;;;;;;;16.15;9.07;;;;;;;7.95;100.00;100075.44;8256821;28;20046;-81
2022/01/02 06:37:42;;;;;;;15.07;8.53;;;;;;;7.94;100.00;100069.09;8263639;28;20046;-80
2022/01/02 06:41:45;;;;;;;15.50;8.48;;;;;;;7.91;100.00;100068.69;8275280;28;20050;-80
2022/01/02 06:45:47;;;;;;;13.68;7.35;;;;;;;7.89;100.00;100043.41;8260629;28;20073;-80
2022/01/02 06:49:49;;;;;;;14.90;8.30;;;;;;;7.86;100.00;100043.88;8263880;28;20546;-80
2022/01/02 06:53:51;;;;;;;13.73;7.78;;;;;;;7.80;100.00;100037.38;8269431;28;20070;-80
2022/01/02 06:57:52;;;;;;;15.38;7.80;;;;;;;7.79;100.00;100043.06;8274189;28;21291;-79
2022/01/02 07:01:54;;;;;;;16.48;7.18;;;;;;;7.70;100.00;100040.66;8277062;28;20077;-79
2022/01/02 07:05:56;;;;;;;14.40;7.07;;;;;;;7.63;100.00;100059.03;8279679;28;20050;-79
2022/01/02 07:09:58;;;;;;;16.70;7.07;;;;;;;7.55;100.00;100067.53;8257052;28;20054;-79
2022/01/02 07:14:00;;;;;;;15.85;7.30;;;;;;;7.58;100.00;100069.84;8266449;28;20117;-79
2022/01/02 07:18:01;;;;;;;15.00;7.50;;;;;;;7.62;100.00;100062.88;8255100;28;20153;-79
2022/01/02 07:22:05;;;;;;;12.73;7.40;;;;;;;7.67;100.00;100064.91;8259208;28;20117;-79
2022/01/02 07:26:06;;;;;;;16.98;8.50;;;;;;;7.71;100.00;100067.00;8261567;28;20050;-78
2022/01/02 07:30:09;;;;;;;14.88;8.02;;;;;;;7.76;100.00;100058.06;8257042;28;20153;-80
2022/01/02 07:34:10;;;;;;;14.93;6.90;;;;;;;7.81;100.00;100062.91;8255611;28;20125;-79
2022/01/02 07:38:12;;;;;;;14.32;7.78;;;;;;;7.84;100.00;100048.72;8284932;28;20053;-79
2022/01/02 07:42:13;;;;;;;14.50;7.72;;;;;;;7.83;100.00;100039.66;8262101;28;20065;-79
2022/01/02 07:46:23;;;;;;;13.18;7.45;;;;;;;7.94;100.00;100010.63;8268621;28;20046;-79
2022/01/02 07:50:25;;;;;;;13.65;7.38;;;;;;;8.01;100.00;100014.16;8252434;28;20042;-80
2022/01/02 07:54:26;;;;;;;15.30;7.43;;;;;;;8.13;100.00;100015.06;8265792;28;20046;-80
2022/01/02 07:58:28;;;;;;;12.68;8.40;;;;;;;8.21;100.00;100009.28;8254635;28;20069;-81
2022/01/02 08:02:30;;;;;;;13.23;7.43;;;;;;;8.31;100.00;100014.22;8257918;28;20137;-81
2022/01/02 08:06:32;;;;;;;12.52;7.45;;;;;;;8.38;100.00;100025.09;8261639;28;20104;-81
2022/01/02 08:10:33;;;;;;;13.98;7.30;;;;;;;8.42;100.00;100009.91;8248779;28;20125;-78
2022/01/02 08:14:35;;;;;;;10.75;6.93;;;;;;;8.47;100.00;100011.94;8263745;28;20096;-79
2022/01/02 08:18:37;;;;;;;13.77;7.25;;;;;;;8.50;100.00;100000.50;8260541;28;20126;-81
2022/01/02 08:22:38;;;;;;;16.52;7.47;;;;;;;8.50;100.00;100003.22;8258560;28;20708;-81
2022/01/02 08:26:40;;;;;;;13.32;7.60;;;;;;;8.58;100.00;99992.75;8238234;28;20053;-80
2022/01/02 08:30:43;;;;;;;12.10;7.65;;;;;;;8.63;100.00;99992.91;8256900;28;20107;-78
2022/01/02 08:34:44;;;;;;;12.32;7.15;;;;;;;8.71;100.00;99978.00;8257880;28;20121;-78
2022/01/02 08:38:47;;;;;;;11.68;6.63;;;;;;;8.74;100.00;99972.03;8265083;28;20046;-80
2022/01/02 08:42:49;;;;;;;;;;;;;;;8.75;100.00;99970.16;8266744;28;20117;-80
2022/01/02 08:46:50;;;;;;;11.93;6.75;;;;;;;8.81;100.00;99955.47;8267283;28;19953;-81
2022/01/02 08:50:52;;;;;;;13.10;6.30;;;;;;;8.81;100.00;99939.81;8260247;28;20446;-80
2022/01/02 08:54:54;;;;;;;10.82;7.35;;;;;;;8.78;99.45;99944.94;8260267;28;20043;-81
2022/01/02 08:58:55;;;;;;;13.15;6.43;;;;;;;8.81;99.61;99933.50;8256232;28;20054;-79
2022/01/02 09:02:57;;;;;;;10.75;6.30;;;;;;;8.91;100.00;99920.00;8253011;28;20042;-81
2022/01/02 09:06:59;;;;;;;12.07;6.72;;;;;;;9.03;100.00;99929.09;8261510;28;20050;-78
2022/01/02 09:11:00;;;;;;;11.88;7.05;;;;;;;9.14;100.00;99932.94;8258573;28;20084;-78
2022/01/02 09:15:02;;;;;;;11.27;6.43;;;;;;;9.26;99.31;99942.03;8262916;28;20044;-79
2022/01/02 09:19:04;;;;;;;9.90;6.30;;;;;;;9.42;97.97;99945.97;8267649;28;20053;-79
2022/01/02 09:23:05;;;;;;;10.82;6.22;;;;;;;9.45;94.96;99947.41;8275475;28;20575;-79
2022/01/02 09:27:07;;;;;;;10.10;5.25;;;;;;;9.51;93.06;99954.72;8259649;28;20034;-83
2022/01/02 09:31:08;;;;;;;9.77;5.43;;;;;;;9.76;93.50;99944.31;8261438;28;20089;-78
2022/01/02 09:35:11;;;;;;;8.38;5.15;;;;;;;9.89;92.57;99951.44;8258936;28;20050;-78
2022/01/02 09:39:12;;;;;;;10.20;5.00;;;;;;;9.93;90.48;99960.06;8268239;28;20149;-78
2022/01/02 09:43:16;;;;;;;9.00;4.88;;;;;;;9.87;89.42;99961.03;8261293;28;20053;-80
2022/01/02 09:47:21;;;;;;;10.57;5.97;;;;;;;9.89;89.30;99950.63;8230764;28;20078;-79
2022/01/02 09:51:25;;;;;;;9.50;5.88;;;;;;;9.81;88.48;99951.81;8269170;28;20058;-80
2022/01/02 09:55:27;;;;;;;9.70;5.25;;;;;;;9.81;88.31;99940.81;8259268;28;20124;-80
2022/01/02 09:59:29;;;;;;;10.63;4.67;;;;;;;9.82;87.11;99935.06;8279305;28;20042;-80
2022/01/02 10:03:44;;;;;;;9.70;5.15;;;;;;;9.92;86.81;99939.94;8264981;28;20461;-80
2022/01/02 10:07:46;;;;;;;7.60;4.32;;;;;;;9.94;84.81;99940.56;8273000;28;20491;-80
2022/01/02 10:11:48;;;;;;;7.38;4.13;;;;;;;10.08;86.08;99974.16;8279063;28;20042;-80
2022/01/02 10:15:49;;;;;;;10.68;5.85;;;;;;;10.09;85.96;99981.34;8279370;28;20072;-80
2022/01/02 10:19:51;;;;;;;8.93;5.30;;;;;;;9.97;85.01;99989.63;8274270;28;20051;-80
2022/01/02 10:24:10;;;;;;;8.63;4.85;;;;;;;9.84;85.47;99998.13;8274296;28;20080;-80
2022/01/02 10:28:37;;;;;;;8.18;4.97;;;;;;;9.63;86.84;99969.28;8268800;28;20568;-81
2022/01/02 10:32:43;;;;;;;9.27;5.00;;;;;;;9.53;86.66;99966.31;8260006;28;20518;-81
2022/01/02 10:36:46;;;;;;;10.18;6.38;;;;;;;9.53;87.22;99949.81;8267348;28;20417;-79
2022/01/02 10:40:48;;;;;;;9.57;4.75;;;;;;;9.47;86.10;99946.09;8266849;28;20074;-80
2022/01/02 10:44:50;;;;;;;8.95;4.30;;;;;;;9.51;86.41;99911.53;8264499;28;20081;-81
2022/01/02 10:48:53;;;;;;;9.50;4.88;;;;;;;9.49;nan;99899.94;8285987;28;20049;-80
2022/01/02 10:52:54;;;;;;;;;;;;;;;9.52;85.82;99879.38;8287807;28;20458;-80
2022/01/02 10:56:57;;;;;;;6.95;4.22;;;;;;;9.64;84.83;99868.31;8265117;28;20572;-80
2022/01/02 11:01:03;;;;;;;6.47;3.97;;;;;;;9.78;83.49;99858.72;8269453;28;20077;-80
2022/01/02 11:05:08;;;;;;;7.70;3.75;;;;;;;9.92;82.52;99829.84;8263153;28;20042;-81
2022/01/02 11:09:10;;;;;;;6.15;3.60;;;;;;;10.11;82.75;99810.38;8271264;28;20454;-80
2022/01/02 11:13:12;;;;;;;8.63;4.22;;;;;;;10.16;83.25;99792.03;8271312;28;20073;-81
2022/01/02 11:17:14;;;;;;;9.07;3.40;;;;;;;10.17;82.85;99773.59;8274494;28;20411;-81
2022/01/02 11:21:17;;;;;;;5.50;4.00;;;;;;;10.23;82.71;99778.09;8267204;28;20121;-80
2022/01/02 11:25:42;;;;;;;6.40;3.67;;;;;;;10.34;82.94;99771.72;8272803;28;20129;-80
2022/01/02 11:29:44;;;;;;;8.90;3.58;;;;;;;10.42;82.91;99774.06;8260827;28;20129;-80
2022/01/02 11:33:46;;;;;;;6.73;3.33;;;;;;;10.41;81.43;99786.19;8247638;28;20056;-80
2022/01/02 11:37:53;;;;;;;7.38;3.50;;;;;;;10.33;79.96;99816.06;8267674;28;20066;-80
2022/01/02 11:41:56;;;;;;;5.47;2.80;;;;;;;10.34;78.43;99793.75;8273266;28;20061;-80
2022/01/02 11:46:22;;;;;;;6.40;3.33;;;;;;;10.37;76.88;99806.22;8305941;28;20589;-80
2022/01/02 11:50:26;;;;;;;5.70;3.47;;;;;;;10.41;74.81;99799.97;8363986;28;20043;-80
2022/01/02 11:54:28;;;;;;;7.22;3.95;;;;;;;10.48;74.53;99770.31;8377578;28;20124;-80
2022/01/02 11:58:47;;;;;;;6.95;3.42;;;;;;;10.46;73.50;99766.97;8367863;28;20056;-79
2022/01/02 12:02:49;;;;;;;7.95;3.67;;;;;;;10.56;74.30;99773.72;8385963;28;20072;-79
2022/01/02 12:06:52;;;;;;;7.25;4.20;;;;;;;10.60;72.65;99791.44;8364883;28;20049;-80
2022/01/02 12:10:54;;;;;;;5.63;2.83;;;;;;;10.77;73.15;99843.78;8359083;28;20045;-79
2022/01/02 12:14:55;;;;;;;5.78;3.25;;;;;;;10.79;71.81;99827.84;8356321;28;20123;-81
2022/01/02 12:18:57;;;;;;;6.25;3.58;;;;;;;10.88;71.96;99835.44;8383082;28;20139;-80
2022/01/02 12:22:59;;;;;;;7.90;4.03;;;;;;;10.83;73.61;99818.00;8354330;28;20049;-79
2022/01/02 12:27:12;;;;;;;9.00;4.35;;;;;;;10.78;74.20;99823.44;8365211;28;20048;-80
2022/01/02 12:31:17;;;;;;;6.15;3.55;;;;;;;11.03;73.15;99815.53;8374918;28;20048;-80
2022/01/02 12:35:19;;;;;;;7.45;4.30;;;;;;;11.04;73.39;99805.38;8358246;28;20587;-80
2022/01/02 12:39:32;;;;;;;6.57;4.05;;;;;;;10.73;73.61;99807.63;8384100;28;20128;-79
2022/01/02 12:43:34;;;;;;;7.97;3.90;;;;;;;10.58;75.66;99818.41;8386339;28;20076;-79
2022/01/02 12:47:36;;;;;;;6.95;3.45;;;;;;;10.32;76.04;99806.97;8368363;28;20048;-79
2022/01/02 12:51:49;;;;;;;9.90;4.20;;;;;;;10.11;77.34;99802.94;8368421;28;20140;-80
2022/01/02 12:55:57;;;;;;;8.38;4.57;;;;;;;9.92;78.84;99794.06;8363802;28;20048;-80
2022/01/02 12:59:59;;;;;;;8.00;4.53;;;;;;;9.78;79.69;99776.19;8356904;28;20076;-80
2022/01/02 13:04:01;;;;;;;13.27;7.25;;;;;;;9.83;80.09;99768.03;8369259;28;20044;-80
2022/01/02 13:08:03;;;;;;;9.57;6.00;;;;;;;10.07;79.52;99759.66;8357124;28;20420;-80
2022/01/02 13:12:08;;;;;;;10.60;5.70;;;;;;;10.62;78.44;99747.94;8367959;28;20123;-80
2022/01/02 13:16:10;;;;;;;8.57;4.80;;;;;;;11.04;76.37;99758.50;8369398;28;20399;-79
2022/01/02 13:20:31;;;;;;;7.28;4.22;;;;;;;11.18;73.98;99774.44;8363716;28;20475;-80
2022/01/02 13:24:35;;;;;;;8.10;4.40;;;;;;;11.30;74.18;99768.78;8372767;28;20119;-81
2022/01/02 13:28:36;;;;;;;6.78;4.57;;;;;;;11.39;73.61;99783.81;8356297;28;20128;-81
2022/01/02 13:32:39;;;;;;;7.25;4.18;;;;;;;11.42;73.22;99787.94;8373326;28;20072;-81
2022/01/02 13:36:53;;;;;;;;;;;;;;;11.49;72.93;99796.06;8365738;28;20047;-81
2022/01/02 13:40:55;;;;;;;6.90;4.00;;;;;;;11.46;73.73;99780.03;8361800;28;19928;-81
2022/01/02 13:45:11;;;;;;;8.25;4.35;;;;;;;11.38;73.71;99790.41;8371772;28;20036;-80
2022/01/02 13:49:42;;;;;;;5.97;3.85;;;;;;;11.29;74.30;99780.91;8356852;28;20106;-81
2022/01/02 13:53:43;;;;;;;10.90;4.35;;;;;;;11.22;73.86;99795.97;8360800;28;20465;-80
2022/01/02 13:57:45;;;;;;;7.78;4.22;;;;;;;11.18;73.94;99781.84;8378741;28;20064;-81
2022/01/02 14:01:51;;;;;;;7.38;4.00;;;;;;;11.13;73.95;99788.13;8362364;28;20060;-80
2022/01/02 14:05:53;;;;;;;5.80;3.55;;;;;;;11.21;74.63;99797.88;8372360;28;20044;-80
2022/01/02 14:09:56;;;;;;;6.40;3.72;;;;;;;11.23;74.62;99803.16;8394616;28;20128;-80
2022/01/02 14:14:17;;;;;;;8.38;3.50;;;;;;;11.20;74.89;99787.94;8367428;28;20637;-81
2022/01/02 14:18:27;;;;;;;6.32;3.28;;;;;;;11.22;74.81;99790.47;8384675;28;20075;-81
2022/01/02 14:22:28;;;;;;;7.72;3.92;;;;;;;11.18;74.82;99798.38;8373627;28;20048;-80
2022/01/02 14:26:31;;;;;;;10.68;4.88;;;;;;;11.25;74.55;99807.34;8386127;28;20071;-81
2022/01/02 14:30:32;;;;;;;6.60;3.90;;;;;;;11.30;75.04;99815.69;8386893;28;20075;-81
2022/01/02 14:34:35;;;;;;;7.35;4.15;;;;;;;11.33;75.13;99833.63;8377469;28;20064;-80
2022/01/02 14:38:37;;;;;;;13.57;4.50;;;;;;;11.34;75.04;99843.59;8368026;28;20136;-80
2022/01/02 14:42:40;;;;;;;6.75;3.35;;;;;;;11.39;75.72;99850.03;8366328;28;20087;-81
2022/01/02 14:46:45;;;;;;;7.88;4.18;;;;;;;11.43;75.54;99852.28;8365932;28;20624;-80
2022/01/02 14:50:47;;;;;;;4.65;3.10;;;;;;;11.35;75.82;99856.28;8387650;28;20486;-81
2022/01/02 14:54:48;;;;;;;7.28;3.80;;;;;;;11.28;76.37;99847.38;8370621;28;20104;-80
2022/01/02 14:58:50;;;;;;;7.60;4.00;;;;;;;11.20;76.71;99848.63;8376174;28;20124;-81
2022/01/02 15:02:52;;;;;;;6.85;3.85;;;;;;;11.17;76.81;99849.97;8352832;28;20032;-79
2022/01/02 15:06:54;;;;;;;6.03;3.65;;;;;;;11.15;77.34;99862.31;8368703;28;20144;-81
2022/01/02 15:11:03;;;;;;;7.18;2.97;;;;;;;11.11;77.47;99858.41;8366062;28;20049;-81
2022/01/02 15:15:07;;;;;;;7.13;3.72;;;;;;;11.08;77.73;99862.50;8367950;28;20119;-81
2022/01/02 15:19:09;;;;;;;9.20;3.47;;;;;;;11.15;78.21;99873.34;8373205;28;20128;-81
2022/01/02 15:23:11;;;;;;;8.05;3.65;;;;;;;11.09;78.12;99875.19;8380658;28;20049;-82
2022/01/02 15:27:13;;;;;;;9.15;3.45;;;;;;;11.04;78.35;99868.78;8385107;28;20544;-82
2022/01/02 15:31:18;;;;;;;6.90;3.72;;;;;;;11.05;78.74;99864.94;8385165;28;20040;-82
2022/01/02 15:35:19;;;;;;;;;;;;;;;11.10;78.64;99859.50;8373693;28;20080;-81
2022/01/02 15:39:21;;;;;;;7.35;3.33;;;;;;;11.13;78.92;99859.84;8377702;28;19999;-81
2022/01/02 15:43:22;;;;;;;5.25;3.08;;;;;;;11.17;78.45;99846.38;8376846;28;20056;-81
2022/01/02 15:47:24;;;;;;;6.45;3.00;;;;;;;11.16;78.39;99853.00;8385061;28;20124;-80
2022/01/02 15:51:26;;;;;;;9.13;3.75;;;;;;;11.15;78.74;99854.91;8369858;28;20501;-81
2022/01/02 15:55:28;;;;;;;6.68;3.15;;;;;;;11.17;79.07;99855.47;8363615;28;20383;-80
2022/01/02 15:59:49;;;;;;;7.70;3.50;;;;;;;11.21;79.21;99854.97;8353506;28;20044;-81
2022/01/02 16:03:51;;;;;;;5.20;3.15;;;;;;;11.17;79.12;99862.91;8360013;28;20048;-80
2022/01/02 16:07:52;;;;;;;9.88;3.50;;;;;;;11.18;79.02;99856.31;8357673;28;20116;-80
2022/01/02 16:11:54;;;;;;;8.88;3.20;;;;;;;11.20;79.13;99856.06;8364112;28;20044;-80
2022/01/02 16:15:55;;;;;;;6.47;3.85;;;;;;;11.22;78.76;99849.22;8363843;28;20759;-80
2022/01/02 16:19:57;;;;;;;6.22;3.83;;;;;;;11.23;78.70;99845.34;8377086;28;20050;-80
2022/01/02 16:23:59;;;;;;;7.65;2.97;;;;;;;11.25;79.12;99850.63;8360771;28;20079;-80
2022/01/02 16:28:01;;;;;;;6.40;3.53;;;;;;;11.29;78.83;99852.63;8361647;28;20555;-81
2022/01/02 16:32:02;;;;;;;9.82;3.72;;;;;;;11.26;78.93;99869.69;8359932;28;20041;-81
2022/01/02 16:36:04;;;;;;;4.88;3.03;;;;;;;11.27;79.35;99870.50;8362827;28;20044;-81
2022/01/02 16:40:07;;;;;;;9.48;3.72;;;;;;;11.26;79.80;99869.69;8368633;28;20456;-82
2022/01/02 16:44:09;;;;;;;7.95;3.67;;;;;;;11.31;78.98;99860.66;8363613;28;20075;-80
2022/01/02 16:48:12;;;;;;;6.30;2.95;;;;;;;11.32;79.39;99860.38;8370888;28;20733;-81
2022/01/02 16:52:13;;;;;;;7.65;3.60;;;;;;;11.33;79.39;99870.34;8366650;28;20505;-80
2022/01/02 16:56:15;;;;;;;7.63;3.35;;;;;;;11.36;79.70;99864.31;8358849;28;20045;-80
2022/01/02 17:00:16;;;;;;;8.60;3.97;;;;;;;11.41;79.47;99869.91;8374490;28;20041;-81
2022/01/02 17:04:18;;;;;;;6.30;3.67;;;;;;;11.42;79.34;99862.44;8368211;28;20037;-80
2022/01/02 17:08:20;;;;;;;8.05;3.17;;;;;;;11.43;79.45;99858.63;8371134;28;20132;-80
2022/01/02 17:12:21;;;;;;;6.75;3.22;;;;;;;11.40;79.95;99864.66;8361864;28;20144;-80
2022/01/02 17:16:23;;;;;;;6.78;3.72;;;;;;;11.35;80.13;99843.31;8386390;28;20037;-81
2022/01/02 17:20:27;;;;;;;8.75;2.67;;;;;;;11.38;80.40;99856.59;8362551;28;20406;-80
2022/01/02 17:24:29;;;;;;;6.97;2.72;;;;;;;11.35;80.21;99854.34;8371725;28;20064;-80
2022/01/02 17:28:31;;;;;;;6.90;3.47;;;;;;;11.35;80.72;99859.03;8364118;28;20045;-80
2022/01/02 17:32:32;;;;;;;6.43;2.83;;;;;;;11.34;81.02;99849.09;8352274;28;20148;-79
2022/01/02 17:36:37;;;;;;;9.10;3.20;;;;;;;11.39;80.72;99840.88;8355309;28;20116;-80
2022/01/02 17:40:38;;;;;;;7.00;2.90;;;;;;;11.39;81.07;99825.19;8365549;28;20616;-81
2022/01/02 17:44:40;;;;;;;5.32;2.65;;;;;;;11.43;81.16;99820.00;8354409;28;20079;-80
2022/01/02 17:48:42;;;;;;;8.45;2.90;;;;;;;11.44;81.56;99826.34;8349579;28;20136;-80
2022/01/02 17:52:44;;;;;;;4.63;2.33;;;;;;;11.43;81.11;99830.19;8383692;28;20044;-79
2022/01/02 17:56:46;;;;;;;6.75;2.65;;;;;;;11.43;81.22;99814.47;8359472;28;20060;-78
2022/01/02 18:00:48;;;;;;;7.82;2.83;;;;;;;11.40;81.59;99815.81;8364303;28;20144;-79
2022/01/02 18:04:51;;;;;;;7.40;2.78;;;;;;;11.36;81.74;99800.88;8353789;28;20060;-79
2022/01/02 18:08:58;;;;;;;8.90;3.08;;;;;;;11.27;82.40;99807.88;8356527;28;20128;-78
2022/01/02 18:13:00;;;;;;;9.70;2.78;;;;;;;11.25;82.99;99815.59;8360796;28;20140;-79
2022/01/02 18:17:02;;;;;;;5.95;2.58;;;;;;;11.29;82.61;99815.94;8367208;28;20049;-79
2022/01/02 18:21:04;;;;;;;7.35;2.92;;;;;;;11.33;82.66;99808.81;8364003;28;20467;-81
2022/01/02 18:25:09;;;;;;;5.55;2.80;;;;;;;11.35;82.54;99809.38;8374027;28;20144;-79
2022/01/02 18:29:12;;;;;;;6.53;3.38;;;;;;;11.38;82.72;99812.47;8363459;28;20803;-77
2022/01/02 18:33:14;;;;;;;6.20;3.03;;;;;;;11.44;82.28;99809.78;8367040;28;20119;-79
2022/01/02 18:37:16;;;;;;;8.23;2.72;;;;;;;11.46;82.50;99818.66;8370112;28;20572;-80
2022/01/02 18:41:17;;;;;;;8.02;2.75;;;;;;;11.44;82.41;99809.78;8370403;28;20057;-81
2022/01/02 18:45:19;;;;;;;6.90;2.83;;;;;;;11.47;81.60;99812.84;8373134;28;20521;-81
2022/01/02 18:49:21;;;;;;;5.40;2.35;;;;;;;11.47;81.72;99796.31;8392139;28;20884;-81
2022/01/02 18:53:22;;;;;;;9.23;2.95;;;;;;;11.45;81.64;99811.44;8351680;28;20144;-80
2022/01/02 18:57:24;;;;;;;6.18;2.58;;;;;;;11.46;81.41;99796.56;8366019;28;20068;-80